createdAt,value
2023-02-14T00:00:16.221Z,10.77
2023-02-14T00:02:44.787Z,11.77
2023-02-14T00:05:13.348Z,11.50
2023-02-14T00:07:42.110Z,11.23
2023-02-14T00:10:10.743Z,11.43
2023-02-14T00:12:38.941Z,11.30
2023-02-14T00:15:25.612Z,10.93
2023-02-14T00:17:59.605Z,10.83
2023-02-14T00:20:38.107Z,11.97
2023-02-14T00:23:07.458Z,11.93
2023-02-14T00:25:36.180Z,11.87
2023-02-14T00:28:04.394Z,11.93
2023-02-14T00:30:32.976Z,12.07
2023-02-14T00:33:02.627Z,12.63
2023-02-14T00:35:30.941Z,12.53
2023-02-14T00:37:59.668Z,12.23
2023-02-14T00:40:29.015Z,11.90
2023-02-14T00:42:57.276Z,12.70
2023-02-14T00:45:25.525Z,11.43
2023-02-14T00:47:53.849Z,11.97
2023-02-14T00:50:23.507Z,12.10
2023-02-14T00:52:51.708Z,11.53
2023-02-14T00:55:20.181Z,12.33
2023-02-14T00:57:48.650Z,11.90
2023-02-14T01:00:17.645Z,12.03
2023-02-14T01:02:45.780Z,12.57
2023-02-14T01:05:14.137Z,11.67
2023-02-14T01:07:43.736Z,12.00
2023-02-14T01:10:12.904Z,11.87
2023-02-14T01:12:41.765Z,11.53
2023-02-14T01:15:10.708Z,11.50
2023-02-14T01:17:43.128Z,11.90
2023-02-14T01:20:11.969Z,11.50
2023-02-14T01:22:40.633Z,12.17
2023-02-14T01:25:10.591Z,10.90
2023-02-14T01:27:38.951Z,11.27
2023-02-14T01:30:08.598Z,10.90
2023-02-14T01:32:36.992Z,11.87
2023-02-14T01:35:05.629Z,12.03
2023-02-14T01:37:33.841Z,11.80
2023-02-14T01:40:06.792Z,11.80
2023-02-14T01:42:37.218Z,12.40
2023-02-14T01:45:09.426Z,12.10
2023-02-14T01:47:42.162Z,11.30
2023-02-14T01:50:14.007Z,12.17
2023-02-14T01:52:45.257Z,11.80
2023-02-14T01:55:18.265Z,11.57
2023-02-14T01:57:51.371Z,11.70
2023-02-14T02:00:38.027Z,11.50
2023-02-14T02:03:07.269Z,12.57
2023-02-14T02:05:37.257Z,12.60
2023-02-14T02:08:05.722Z,12.63
2023-02-14T02:10:33.882Z,12.97
2023-02-14T02:13:07.530Z,11.80
2023-02-14T02:15:44.050Z,12.97
2023-02-14T02:18:21.042Z,12.77
2023-02-14T02:21:25.352Z,12.57
2023-02-14T02:24:27.908Z,12.67
2023-02-14T02:27:20.487Z,12.40
2023-02-14T02:30:29.187Z,13.13
2023-02-14T02:33:28.156Z,12.87
2023-02-14T02:36:15.418Z,13.10
2023-02-14T02:38:56.487Z,13.53
2023-02-14T02:41:33.854Z,12.97
2023-02-14T02:44:13.281Z,12.00
2023-02-14T02:46:50.089Z,12.47
2023-02-14T02:49:45.754Z,13.53
2023-02-14T02:52:39.160Z,13.20
2023-02-14T02:55:14.782Z,13.87
2023-02-14T02:57:44.507Z,14.40
2023-02-14T03:00:15.740Z,12.70
2023-02-14T03:03:05.631Z,14.17
2023-02-14T03:05:35.710Z,14.03
2023-02-14T03:08:05.854Z,14.90
2023-02-14T03:10:39.581Z,14.70
2023-02-14T03:13:41.634Z,15.30
2023-02-14T03:16:26.927Z,15.03
2023-02-14T03:19:34.089Z,15.97
2023-02-14T03:22:08.906Z,15.33
2023-02-14T03:24:48.069Z,16.63
2023-02-14T03:27:25.494Z,16.30
2023-02-14T03:30:03.075Z,15.10
2023-02-14T03:32:38.527Z,15.17
2023-02-14T03:35:14.302Z,14.97
2023-02-14T03:37:49.752Z,16.27
2023-02-14T03:40:26.463Z,17.10
2023-02-14T03:42:58.838Z,16.83
2023-02-14T03:45:33.643Z,17.10
2023-02-14T03:48:06.581Z,16.63
2023-02-14T03:50:37.531Z,17.27
2023-02-14T03:53:09.255Z,17.80
2023-02-14T03:55:46.089Z,17.53
2023-02-14T03:58:20.332Z,18.77
2023-02-14T04:00:51.753Z,19.33
2023-02-14T04:03:22.237Z,19.20
2023-02-14T04:05:55.519Z,19.03
2023-02-14T04:08:25.800Z,17.27
2023-02-14T04:10:58.100Z,19.03
2023-02-14T04:13:26.680Z,18.83
2023-02-14T04:15:55.104Z,19.07
2023-02-14T04:18:52.430Z,20.87
2023-02-14T04:21:20.631Z,21.33
2023-02-14T04:23:48.829Z,21.53
2023-02-14T04:26:19.522Z,21.23
2023-02-14T04:28:47.779Z,20.57
2023-02-14T04:31:16.067Z,19.07
2023-02-14T04:33:51.340Z,19.63
2023-02-14T04:36:19.950Z,20.17
2023-02-14T04:38:49.139Z,21.90
2023-02-14T04:41:18.919Z,20.03
2023-02-14T04:43:47.054Z,20.27
2023-02-14T04:46:15.215Z,19.33
2023-02-14T04:48:43.513Z,21.70
2023-02-14T04:51:12.266Z,20.37
2023-02-14T04:53:40.562Z,22.00
2023-02-14T04:56:09.497Z,21.47
2023-02-14T04:58:39.187Z,21.97
2023-02-14T05:01:07.304Z,23.27
2023-02-14T05:03:38.577Z,22.27
2023-02-14T05:06:07.332Z,23.97
2023-02-14T05:08:35.842Z,23.77
2023-02-14T05:11:04.220Z,24.00
2023-02-14T05:13:33.438Z,25.40
2023-02-14T05:16:03.220Z,24.20
2023-02-14T05:18:31.443Z,21.23
2023-02-14T05:21:00.141Z,24.83
2023-02-14T05:23:28.532Z,25.87
2023-02-14T05:25:57.133Z,23.73
2023-02-14T05:28:25.612Z,24.83
2023-02-14T05:30:57.036Z,23.93
2023-02-14T05:33:27.543Z,25.20
2023-02-14T05:35:56.037Z,22.87
2023-02-14T05:38:24.192Z,23.63
2023-02-14T05:40:52.747Z,24.57
2023-02-14T05:43:21.010Z,25.10
2023-02-14T05:45:50.383Z,23.87
2023-02-14T05:48:19.107Z,25.10
2023-02-14T05:50:48.740Z,25.50
2023-02-14T05:53:17.537Z,25.33
2023-02-14T05:55:46.008Z,26.20
2023-02-14T05:58:14.226Z,26.20
2023-02-14T06:00:43.721Z,27.83
2023-02-14T06:03:12.134Z,26.03
2023-02-14T06:05:40.240Z,28.43
2023-02-14T06:08:13.188Z,26.87
2023-02-14T06:10:42.906Z,25.57
2023-02-14T06:13:10.918Z,26.13
2023-02-14T06:15:39.704Z,25.50
2023-02-14T06:18:08.545Z,25.60
2023-02-14T06:20:36.849Z,26.20
2023-02-14T06:23:05.260Z,26.00
2023-02-14T06:25:34.999Z,24.50
2023-02-14T06:28:03.259Z,24.13
2023-02-14T06:30:31.732Z,24.80
2023-02-14T06:32:59.991Z,25.20
2023-02-14T06:35:28.324Z,23.97
2023-02-14T06:37:56.805Z,25.17
2023-02-14T06:40:25.595Z,24.13
2023-02-14T06:42:55.222Z,22.30
2023-02-14T06:45:23.272Z,23.23
2023-02-14T06:47:52.102Z,22.50
2023-02-14T06:50:20.588Z,22.93
2023-02-14T06:52:48.974Z,22.07
2023-02-14T06:55:17.611Z,21.63
2023-02-14T06:57:46.359Z,22.20
2023-02-14T07:00:16.839Z,20.30
2023-02-14T07:02:45.334Z,22.27
2023-02-14T07:05:15.332Z,20.93
2023-02-14T07:07:43.595Z,20.80
2023-02-14T07:10:12.815Z,21.13
2023-02-14T07:12:40.958Z,20.17
2023-02-14T07:15:10.839Z,19.53
2023-02-14T07:17:41.228Z,20.30
2023-02-14T07:20:12.741Z,19.60
2023-02-14T07:22:41.343Z,18.53
2023-02-14T07:25:10.729Z,17.37
2023-02-14T07:27:39.532Z,17.00
2023-02-14T07:30:10.012Z,15.93
2023-02-14T07:32:41.432Z,11.83
2023-02-14T07:35:15.002Z,12.23
2023-02-14T07:37:43.543Z,12.43
2023-02-14T07:40:15.130Z,11.43
2023-02-14T07:42:43.720Z,11.97
2023-02-14T07:45:21.956Z,10.90
2023-02-14T07:47:54.863Z,10.77
2023-02-14T07:50:24.569Z,10.13
2023-02-14T07:52:52.840Z,10.60
2023-02-14T07:55:20.928Z,11.30
2023-02-14T07:57:50.074Z,10.30
2023-02-14T08:00:22.368Z,9.53
2023-02-14T08:02:52.185Z,9.40
2023-02-14T08:05:20.581Z,10.17
2023-02-14T08:07:50.653Z,9.50
2023-02-14T08:10:19.134Z,9.67
2023-02-14T08:13:03.879Z,9.70
2023-02-14T08:15:50.964Z,8.77
2023-02-14T08:18:23.294Z,8.93
2023-02-14T08:20:52.075Z,8.77
2023-02-14T08:23:22.068Z,7.50
2023-02-14T08:25:54.262Z,8.30
2023-02-14T08:28:25.087Z,7.73
2023-02-14T08:30:57.628Z,7.07
2023-02-14T08:33:28.139Z,6.47
2023-02-14T08:35:56.921Z,6.20
2023-02-14T08:38:25.790Z,6.40
2023-02-14T08:40:54.263Z,6.00
2023-02-14T08:43:22.500Z,5.33
2023-02-14T08:45:54.490Z,6.13
2023-02-14T08:48:26.815Z,6.93
2023-02-14T08:50:59.319Z,5.77
2023-02-14T08:53:28.047Z,6.30
2023-02-14T08:55:56.413Z,5.53
2023-02-14T08:58:24.791Z,5.30
2023-02-14T09:00:53.107Z,5.10
2023-02-14T09:03:21.775Z,6.07
2023-02-14T09:05:52.972Z,5.50
2023-02-14T09:08:22.934Z,6.20
2023-02-14T09:10:52.212Z,4.77
2023-02-14T09:13:21.474Z,4.90
2023-02-14T09:15:50.348Z,4.60
2023-02-14T09:18:21.942Z,5.20
2023-02-14T09:21:01.265Z,4.80
2023-02-14T09:23:32.036Z,5.00
2023-02-14T09:26:03.650Z,4.90
2023-02-14T09:28:35.335Z,5.33
2023-02-14T09:31:15.989Z,5.30
2023-02-14T09:34:04.454Z,5.10
2023-02-14T09:36:41.279Z,4.93
2023-02-14T09:39:11.476Z,5.43
2023-02-14T09:42:13.017Z,5.43
2023-02-14T09:44:50.336Z,4.77
2023-02-14T09:47:35.356Z,5.10
2023-02-14T09:50:06.244Z,5.97
2023-02-14T09:52:35.295Z,5.77
2023-02-14T09:55:05.756Z,5.13
2023-02-14T09:57:40.403Z,4.90
2023-02-14T10:00:21.989Z,4.93
2023-02-14T10:03:02.133Z,4.67
2023-02-14T10:05:35.026Z,4.77
2023-02-14T10:08:18.529Z,4.50
2023-02-14T10:11:01.511Z,4.57
2023-02-14T10:13:35.146Z,4.67
2023-02-14T10:16:11.604Z,4.20
2023-02-14T10:18:44.165Z,4.60
2023-02-14T10:21:22.093Z,4.30
2023-02-14T10:23:59.818Z,5.87
2023-02-14T10:26:45.963Z,4.80
2023-02-14T10:29:17.713Z,4.07
2023-02-14T10:31:56.061Z,3.30
2023-02-14T10:34:34.282Z,4.07
2023-02-14T10:37:20.120Z,3.73
2023-02-14T10:40:16.511Z,3.27
2023-02-14T10:42:55.181Z,2.80
2023-02-14T10:45:35.709Z,3.40
2023-02-14T10:48:16.880Z,3.20
2023-02-14T10:50:54.227Z,3.40
2023-02-14T10:53:31.218Z,3.07
2023-02-14T10:56:05.399Z,3.20
2023-02-14T10:58:40.000Z,3.33
2023-02-14T11:01:13.214Z,3.20
2023-02-14T11:03:53.115Z,2.90
2023-02-14T11:06:21.461Z,2.90
2023-02-14T11:08:51.424Z,3.50
2023-02-14T11:11:26.448Z,3.07
2023-02-14T11:13:56.068Z,2.80
2023-02-14T11:16:32.302Z,2.70
2023-02-14T11:19:20.080Z,3.60
2023-02-14T11:21:51.040Z,3.10
2023-02-14T11:24:26.436Z,3.40
2023-02-14T11:26:58.461Z,2.93
2023-02-14T11:29:31.303Z,3.10
2023-02-14T11:32:11.723Z,3.50
2023-02-14T11:34:42.717Z,4.43
2023-02-14T11:37:28.067Z,3.60
2023-02-14T11:40:00.872Z,3.10
2023-02-14T11:42:43.264Z,3.47
2023-02-14T11:45:30.788Z,4.13
2023-02-14T11:48:34.947Z,3.80
2023-02-14T11:51:09.422Z,3.93
2023-02-14T11:53:48.302Z,3.77
2023-02-14T11:56:18.239Z,3.93
2023-02-14T11:58:54.484Z,3.90
2023-02-14T12:01:30.462Z,3.97
2023-02-14T12:04:02.857Z,4.00
2023-02-14T12:06:34.161Z,4.13
2023-02-14T12:09:25.506Z,4.00
2023-02-14T12:11:57.386Z,3.93
2023-02-14T12:14:53.640Z,4.20
2023-02-14T12:17:36.085Z,4.67
2023-02-14T12:20:12.790Z,4.53
2023-02-14T12:22:50.495Z,5.43
2023-02-14T12:25:24.047Z,5.40
2023-02-14T12:28:00.438Z,5.30
2023-02-14T12:30:33.070Z,5.80
2023-02-14T12:33:06.351Z,6.67
2023-02-14T12:35:48.922Z,6.00
2023-02-14T12:38:26.580Z,6.07
2023-02-14T12:41:08.914Z,7.27
2023-02-14T12:43:50.900Z,6.20
2023-02-14T12:46:39.535Z,6.80
2023-02-14T12:49:35.448Z,6.70
2023-02-14T12:52:20.525Z,7.23
2023-02-14T12:55:06.302Z,7.03
2023-02-14T12:57:45.294Z,7.53
2023-02-14T13:00:26.017Z,7.87
2023-02-14T13:03:12.607Z,7.87
2023-02-14T13:05:55.250Z,7.50
2023-02-14T13:08:42.125Z,7.80
2023-02-14T13:11:21.728Z,8.87
2023-02-14T13:14:04.591Z,9.13
2023-02-14T13:16:39.226Z,8.13
2023-02-14T13:19:17.627Z,8.00
2023-02-14T13:21:48.774Z,8.20
2023-02-14T13:24:24.572Z,7.87
2023-02-14T13:26:58.494Z,8.23
2023-02-14T13:29:31.534Z,7.77
2023-02-14T13:32:03.746Z,8.27
2023-02-14T13:34:39.517Z,8.70
2023-02-14T13:37:13.026Z,8.87
2023-02-14T13:39:46.346Z,8.43
2023-02-14T13:42:37.254Z,9.97
2023-02-14T13:45:07.287Z,8.83
2023-02-14T13:47:35.800Z,8.63
2023-02-14T13:50:06.363Z,8.43
2023-02-14T13:52:48.540Z,8.57
2023-02-14T13:55:21.898Z,8.80
2023-02-14T13:58:04.060Z,10.03
2023-02-14T14:00:50.608Z,9.70
2023-02-14T14:03:58.559Z,9.33
2023-02-14T14:06:27.306Z,9.00
2023-02-14T14:09:02.213Z,8.63
2023-02-14T14:11:58.240Z,9.77
2023-02-14T14:14:44.778Z,9.83
2023-02-14T14:17:23.284Z,10.27
2023-02-14T14:19:52.650Z,10.47
2023-02-14T14:22:22.403Z,10.00
2023-02-14T14:24:58.929Z,11.03
2023-02-14T14:27:31.175Z,10.43
2023-02-14T14:30:04.833Z,10.30
2023-02-14T14:32:35.150Z,10.50
2023-02-14T14:35:06.138Z,10.50
2023-02-14T14:37:36.207Z,11.90
2023-02-14T14:40:12.191Z,12.20
2023-02-14T14:42:44.919Z,11.97
2023-02-14T14:45:23.238Z,12.07
2023-02-14T14:47:54.730Z,12.17
2023-02-14T14:50:25.704Z,13.87
2023-02-14T14:52:57.329Z,13.67
2023-02-14T14:55:31.354Z,11.27
2023-02-14T14:58:03.899Z,12.90
2023-02-14T15:00:33.987Z,12.60
2023-02-14T15:03:05.862Z,13.30
2023-02-14T15:05:37.254Z,13.20
2023-02-14T15:08:17.516Z,12.90
2023-02-14T15:10:52.627Z,11.70
2023-02-14T15:13:38.377Z,12.23
2023-02-14T15:16:07.156Z,11.67
2023-02-14T15:18:35.407Z,12.10
2023-02-14T15:21:05.343Z,11.07
2023-02-14T15:23:34.450Z,12.47
2023-02-14T15:26:04.583Z,12.17
2023-02-14T15:28:34.692Z,12.23
2023-02-14T15:31:05.379Z,12.37
2023-02-14T15:33:37.264Z,13.97
2023-02-14T15:36:09.330Z,12.67
2023-02-14T15:38:42.424Z,12.13
2023-02-14T15:41:15.228Z,12.93
2023-02-14T15:43:44.351Z,11.73
2023-02-14T15:46:20.214Z,12.63
2023-02-14T15:48:48.875Z,13.87
2023-02-14T15:51:21.446Z,13.00
2023-02-14T15:53:53.524Z,12.47
2023-02-14T15:56:27.682Z,12.40
2023-02-14T15:59:08.573Z,13.17
2023-02-14T16:01:39.337Z,12.37
2023-02-14T16:04:08.875Z,11.77
2023-02-14T16:06:39.388Z,12.33
2023-02-14T16:09:23.989Z,11.87
2023-02-14T16:11:54.310Z,11.97
2023-02-14T16:14:32.534Z,12.20
2023-02-14T16:17:02.334Z,14.00
2023-02-14T16:19:39.706Z,11.67
2023-02-14T16:22:10.226Z,12.97
2023-02-14T16:24:38.550Z,12.70
2023-02-14T16:27:08.966Z,13.73
2023-02-14T16:29:37.767Z,14.00
2023-02-14T16:32:16.936Z,13.20
2023-02-14T16:34:50.171Z,13.23
2023-02-14T16:37:23.805Z,13.17
2023-02-14T16:39:54.312Z,14.13
2023-02-14T16:42:28.279Z,13.43
2023-02-14T16:44:56.577Z,14.27
2023-02-14T16:47:27.810Z,13.23
2023-02-14T16:49:56.639Z,14.30
2023-02-14T16:52:27.907Z,14.80
2023-02-14T16:54:56.688Z,13.87
2023-02-14T16:57:32.279Z,14.07
2023-02-14T17:00:00.771Z,12.83
2023-02-14T17:02:29.647Z,13.43
2023-02-14T17:05:00.755Z,13.47
2023-02-14T17:07:30.582Z,14.33
2023-02-14T17:10:04.810Z,14.97
2023-02-14T17:12:37.852Z,15.10
2023-02-14T17:15:14.546Z,13.40
2023-02-14T17:17:44.116Z,14.63
2023-02-14T17:20:14.081Z,13.60
2023-02-14T17:22:43.645Z,13.97
2023-02-14T17:25:12.151Z,14.73
2023-02-14T17:27:44.568Z,14.33
2023-02-14T17:30:15.051Z,14.33
2023-02-14T17:32:44.177Z,15.10
2023-02-14T17:35:14.656Z,15.43
2023-02-14T17:37:44.564Z,14.90
2023-02-14T17:40:14.565Z,14.40
2023-02-14T17:42:45.270Z,17.13
2023-02-14T17:45:13.531Z,14.97
2023-02-14T17:47:43.385Z,17.07
2023-02-14T17:50:18.846Z,15.27
2023-02-14T17:52:47.074Z,15.47
2023-02-14T17:55:17.059Z,14.57
2023-02-14T17:57:46.841Z,14.17
2023-02-14T18:00:16.819Z,14.80
2023-02-14T18:02:45.619Z,14.07
2023-02-14T18:05:14.104Z,15.53
2023-02-14T18:07:43.291Z,15.30
2023-02-14T18:10:12.534Z,14.37
2023-02-14T18:12:41.142Z,13.87
2023-02-14T18:15:11.460Z,14.90
2023-02-14T18:17:39.954Z,14.30
2023-02-14T18:20:09.559Z,14.33
2023-02-14T18:22:37.974Z,14.70
2023-02-14T18:25:13.808Z,16.33
2023-02-14T18:27:42.353Z,14.93
2023-02-14T18:30:12.994Z,14.87
2023-02-14T18:32:41.445Z,13.70
2023-02-14T18:35:10.111Z,15.57
2023-02-14T18:37:38.474Z,15.03
2023-02-14T18:40:08.166Z,13.63
2023-02-14T18:42:37.689Z,14.40
2023-02-14T18:45:06.308Z,14.80
2023-02-14T18:47:35.950Z,15.57
2023-02-14T18:50:04.662Z,14.97
2023-02-14T18:52:33.733Z,14.50
2023-02-14T18:55:02.073Z,15.23
2023-02-14T18:57:30.580Z,17.17
2023-02-14T18:59:58.968Z,17.60
2023-02-14T19:02:27.378Z,15.93
2023-02-14T19:04:57.777Z,15.20
2023-02-14T19:07:26.990Z,15.33
2023-02-14T19:09:55.628Z,14.80
2023-02-14T19:12:24.595Z,14.67
2023-02-14T19:14:55.354Z,15.87
2023-02-14T19:17:24.088Z,15.50
2023-02-14T19:19:54.052Z,16.40
2023-02-14T19:22:24.115Z,14.67
2023-02-14T19:24:54.237Z,15.67
2023-02-14T19:27:23.965Z,17.27
2023-02-14T19:29:52.859Z,16.20
2023-02-14T19:32:21.560Z,16.00
2023-02-14T19:34:50.355Z,16.03
2023-02-14T19:37:19.501Z,15.20
2023-02-14T19:39:50.302Z,15.13
2023-02-14T19:42:18.628Z,15.17
2023-02-14T19:45:05.315Z,15.57
2023-02-14T19:47:46.509Z,15.53
2023-02-14T19:50:15.991Z,15.90
2023-02-14T19:52:44.831Z,15.00
2023-02-14T19:55:23.709Z,17.07
2023-02-14T19:57:54.397Z,15.77
2023-02-14T20:00:22.726Z,17.70
2023-02-14T20:02:51.177Z,15.63
2023-02-14T20:05:23.557Z,14.47
2023-02-14T20:07:55.617Z,16.27
2023-02-14T20:10:25.443Z,16.80
2023-02-14T20:12:53.999Z,16.47
2023-02-14T20:15:23.499Z,16.77
2023-02-14T20:17:52.084Z,16.70
2023-02-14T20:20:21.954Z,16.10
2023-02-14T20:22:51.069Z,16.47
2023-02-14T20:25:20.315Z,15.93
2023-02-14T20:27:54.745Z,15.30
2023-02-14T20:30:25.745Z,17.90
2023-02-14T20:32:54.421Z,15.67
2023-02-14T20:35:22.676Z,15.23
2023-02-14T20:37:52.501Z,15.43
2023-02-14T20:40:21.464Z,15.80
2023-02-14T20:42:52.411Z,15.23
2023-02-14T20:45:20.715Z,16.40
2023-02-14T20:47:49.694Z,16.13
2023-02-14T20:50:18.379Z,16.37
2023-02-14T20:52:46.643Z,16.30
2023-02-14T20:55:14.734Z,16.47
2023-02-14T20:57:47.631Z,16.90
2023-02-14T21:00:20.911Z,15.93
2023-02-14T21:02:49.511Z,16.67
2023-02-14T21:05:18.641Z,16.17
2023-02-14T21:07:46.812Z,17.63
2023-02-14T21:10:15.174Z,18.33
2023-02-14T21:12:45.147Z,17.30
2023-02-14T21:15:13.543Z,18.00
2023-02-14T21:17:43.597Z,16.80
2023-02-14T21:20:12.806Z,17.57
2023-02-14T21:22:47.845Z,18.23
2023-02-14T21:25:16.341Z,17.87
2023-02-14T21:27:48.518Z,18.03
2023-02-14T21:30:17.463Z,18.70
2023-02-14T21:32:47.416Z,18.83
2023-02-14T21:35:15.823Z,18.87
2023-02-14T21:37:43.975Z,17.20
2023-02-14T21:40:12.562Z,17.67
2023-02-14T21:42:41.751Z,17.83
2023-02-14T21:45:30.237Z,17.77
2023-02-14T21:48:17.504Z,17.27
2023-02-14T21:50:45.794Z,17.23
2023-02-14T21:53:14.697Z,17.13
2023-02-14T21:55:45.737Z,16.93
2023-02-14T21:58:14.761Z,17.57
2023-02-14T22:00:46.284Z,18.47
2023-02-14T22:03:16.262Z,16.37
2023-02-14T22:05:45.267Z,16.60
2023-02-14T22:08:14.506Z,17.17
2023-02-14T22:10:42.779Z,17.53
2023-02-14T22:13:11.168Z,16.77
2023-02-14T22:15:41.365Z,16.67
2023-02-14T22:18:09.963Z,15.50
2023-02-14T22:20:40.127Z,16.27
2023-02-14T22:23:08.715Z,16.13
2023-02-14T22:25:39.785Z,15.77
2023-02-14T22:28:08.040Z,16.43
2023-02-14T22:30:36.730Z,15.03
2023-02-14T22:33:04.944Z,15.50
2023-02-14T22:35:33.139Z,16.10
2023-02-14T22:38:02.871Z,16.97
2023-02-14T22:40:30.914Z,17.13
2023-02-14T22:43:00.761Z,16.47
2023-02-14T22:45:29.154Z,17.03
2023-02-14T22:47:57.613Z,17.17
2023-02-14T22:50:25.800Z,16.53
2023-02-14T22:52:54.295Z,16.17
2023-02-14T22:55:24.305Z,17.00
2023-02-14T22:57:52.688Z,16.77
2023-02-14T23:00:21.895Z,15.80
2023-02-14T23:02:50.553Z,17.20
2023-02-14T23:05:19.066Z,17.83
2023-02-14T23:07:48.021Z,17.50
2023-02-14T23:10:16.977Z,16.57
2023-02-14T23:13:06.068Z,18.33
2023-02-14T23:16:06.083Z,18.53
2023-02-14T23:18:51.659Z,17.20
2023-02-14T23:21:37.189Z,16.90
2023-02-14T23:24:06.176Z,18.67
2023-02-14T23:26:37.082Z,18.43
2023-02-14T23:29:08.065Z,19.20
2023-02-14T23:31:36.586Z,18.70
2023-02-14T23:34:04.988Z,19.67
2023-02-14T23:36:33.521Z,18.87
2023-02-14T23:39:02.087Z,18.97
2023-02-14T23:41:48.797Z,18.33
2023-02-14T23:44:20.580Z,18.70
2023-02-14T23:46:49.698Z,18.23
2023-02-14T23:49:18.761Z,18.83
2023-02-14T23:51:48.770Z,18.73
2023-02-14T23:54:18.399Z,19.03
2023-02-14T23:56:47.507Z,17.53
2023-02-14T23:59:16.770Z,18.10
